sensor_id;sensor_type;location;lat;lon;timestamp;P1;durP1;ratioP1;P2;durP2;ratioP2
55423;SDS011;41294;42.666;23.350;2023-04-20T00:01:53;7.40;;;6.70;;
55423;SDS011;41294;42.666;23.350;2023-04-20T00:04:19;8.10;;;7.30;;
55423;SDS011;41294;42.666;23.350;2023-04-20T00:06:45;9.10;;;7.70;;
55423;SDS011;41294;42.666;23.350;2023-04-20T00:09:11;8.00;;;6.70;;
55423;SDS011;41294;42.666;23.350;2023-04-20T00:11:37;7.80;;;7.00;;
55423;SDS011;41294;42.666;23.350;2023-04-20T00:14:03;8.63;;;6.50;;
55423;SDS011;41294;42.666;23.350;2023-04-20T00:16:28;8.10;;;7.40;;
55423;SDS011;41294;42.666;23.350;2023-04-20T00:18:53;8.47;;;7.67;;
55423;SDS011;41294;42.666;23.350;2023-04-20T00:21:19;8.40;;;7.37;;
55423;SDS011;41294;42.666;23.350;2023-04-20T00:23:48;7.60;;;6.90;;
55423;SDS011;41294;42.666;23.350;2023-04-20T00:26:14;7.93;;;7.20;;
55423;SDS011;41294;42.666;23.350;2023-04-20T00:28:40;7.50;;;6.90;;
55423;SDS011;41294;42.666;23.350;2023-04-20T00:31:06;8.50;;;6.77;;
55423;SDS011;41294;42.666;23.350;2023-04-20T00:33:31;7.87;;;7.07;;
55423;SDS011;41294;42.666;23.350;2023-04-20T00:35:57;8.03;;;6.60;;
55423;SDS011;41294;42.666;23.350;2023-04-20T00:38:22;7.90;;;6.87;;
55423;SDS011;41294;42.666;23.350;2023-04-20T00:40:47;8.23;;;7.47;;
55423;SDS011;41294;42.666;23.350;2023-04-20T00:43:17;8.83;;;7.93;;
55423;SDS011;41294;42.666;23.350;2023-04-20T00:45:44;8.70;;;7.70;;
55423;SDS011;41294;42.666;23.350;2023-04-20T00:48:10;8.63;;;7.73;;
55423;SDS011;41294;42.666;23.350;2023-04-20T00:50:35;8.43;;;7.57;;
55423;SDS011;41294;42.666;23.350;2023-04-20T00:53:02;8.60;;;7.77;;
55423;SDS011;41294;42.666;23.350;2023-04-20T00:55:28;8.80;;;7.90;;
55423;SDS011;41294;42.666;23.350;2023-04-20T00:57:54;8.67;;;7.77;;
55423;SDS011;41294;42.666;23.350;2023-04-20T01:00:20;7.93;;;7.23;;
55423;SDS011;41294;42.666;23.350;2023-04-20T01:02:46;8.60;;;7.70;;
55423;SDS011;41294;42.666;23.350;2023-04-20T01:05:12;8.30;;;7.50;;
55423;SDS011;41294;42.666;23.350;2023-04-20T01:07:37;9.03;;;7.80;;
55423;SDS011;41294;42.666;23.350;2023-04-20T01:10:03;8.37;;;7.30;;
55423;SDS011;41294;42.666;23.350;2023-04-20T01:12:30;8.20;;;7.40;;
55423;SDS011;41294;42.666;23.350;2023-04-20T01:14:56;9.43;;;8.40;;
55423;SDS011;41294;42.666;23.350;2023-04-20T01:17:21;8.90;;;8.00;;
55423;SDS011;41294;42.666;23.350;2023-04-20T01:19:48;9.83;;;7.83;;
55423;SDS011;41294;42.666;23.350;2023-04-20T01:22:15;8.60;;;7.63;;
55423;SDS011;41294;42.666;23.350;2023-04-20T01:24:42;8.93;;;8.13;;
55423;SDS011;41294;42.666;23.350;2023-04-20T01:27:07;9.10;;;7.93;;
55423;SDS011;41294;42.666;23.350;2023-04-20T01:29:33;9.33;;;8.07;;
55423;SDS011;41294;42.666;23.350;2023-04-20T01:31:59;8.90;;;8.00;;
55423;SDS011;41294;42.666;23.350;2023-04-20T01:34:24;10.00;;;8.07;;
55423;SDS011;41294;42.666;23.350;2023-04-20T01:36:50;9.83;;;8.10;;
55423;SDS011;41294;42.666;23.350;2023-04-20T01:39:15;8.90;;;8.13;;
55423;SDS011;41294;42.666;23.350;2023-04-20T01:41:41;9.00;;;8.10;;
55423;SDS011;41294;42.666;23.350;2023-04-20T01:44:07;8.70;;;7.87;;
55423;SDS011;41294;42.666;23.350;2023-04-20T01:46:32;8.83;;;7.97;;
55423;SDS011;41294;42.666;23.350;2023-04-20T01:49:02;10.40;;;8.50;;
55423;SDS011;41294;42.666;23.350;2023-04-20T01:51:27;8.90;;;7.93;;
55423;SDS011;41294;42.666;23.350;2023-04-20T01:53:53;9.33;;;8.00;;
55423;SDS011;41294;42.666;23.350;2023-04-20T01:56:18;8.40;;;7.60;;
55423;SDS011;41294;42.666;23.350;2023-04-20T01:58:44;8.57;;;7.63;;
55423;SDS011;41294;42.666;23.350;2023-04-20T02:01:11;8.70;;;7.63;;
55423;SDS011;41294;42.666;23.350;2023-04-20T02:03:36;9.87;;;7.90;;
55423;SDS011;41294;42.666;23.350;2023-04-20T02:06:01;9.70;;;7.57;;
55423;SDS011;41294;42.666;23.350;2023-04-20T02:08:27;9.30;;;7.80;;
55423;SDS011;41294;42.666;23.350;2023-04-20T02:10:55;8.00;;;7.30;;
55423;SDS011;41294;42.666;23.350;2023-04-20T02:13:24;8.60;;;7.70;;
55423;SDS011;41294;42.666;23.350;2023-04-20T02:15:53;8.23;;;7.50;;
55423;SDS011;41294;42.666;23.350;2023-04-20T02:18:19;9.93;;;7.97;;
55423;SDS011;41294;42.666;23.350;2023-04-20T02:20:45;9.13;;;8.20;;
55423;SDS011;41294;42.666;23.350;2023-04-20T02:23:11;9.03;;;7.90;;
55423;SDS011;41294;42.666;23.350;2023-04-20T02:25:36;9.47;;;7.43;;
55423;SDS011;41294;42.666;23.350;2023-04-20T02:28:02;7.90;;;7.20;;
55423;SDS011;41294;42.666;23.350;2023-04-20T02:30:28;8.03;;;7.23;;
55423;SDS011;41294;42.666;23.350;2023-04-20T02:32:53;8.53;;;6.80;;
55423;SDS011;41294;42.666;23.350;2023-04-20T02:35:18;8.90;;;8.03;;
55423;SDS011;41294;42.666;23.350;2023-04-20T02:37:45;8.60;;;7.70;;
55423;SDS011;41294;42.666;23.350;2023-04-20T02:40:11;7.87;;;7.07;;
55423;SDS011;41294;42.666;23.350;2023-04-20T02:42:37;9.10;;;7.50;;
55423;SDS011;41294;42.666;23.350;2023-04-20T02:45:02;8.60;;;7.80;;
55423;SDS011;41294;42.666;23.350;2023-04-20T02:47:29;9.73;;;7.53;;
55423;SDS011;41294;42.666;23.350;2023-04-20T02:49:55;9.00;;;8.10;;
55423;SDS011;41294;42.666;23.350;2023-04-20T02:52:20;9.37;;;8.30;;
55423;SDS011;41294;42.666;23.350;2023-04-20T02:54:46;8.60;;;7.77;;
55423;SDS011;41294;42.666;23.350;2023-04-20T02:57:11;8.17;;;7.40;;
55423;SDS011;41294;42.666;23.350;2023-04-20T02:59:36;9.00;;;8.17;;
55423;SDS011;41294;42.666;23.350;2023-04-20T03:02:02;8.50;;;7.43;;
55423;SDS011;41294;42.666;23.350;2023-04-20T03:04:28;8.67;;;7.73;;
55423;SDS011;41294;42.666;23.350;2023-04-20T03:06:55;9.70;;;7.50;;
55423;SDS011;41294;42.666;23.350;2023-04-20T03:09:21;10.47;;;7.53;;
55423;SDS011;41294;42.666;23.350;2023-04-20T03:11:47;8.00;;;7.17;;
55423;SDS011;41294;42.666;23.350;2023-04-20T03:14:13;8.30;;;7.43;;
55423;SDS011;41294;42.666;23.350;2023-04-20T03:16:39;9.83;;;7.50;;
55423;SDS011;41294;42.666;23.350;2023-04-20T03:19:04;9.40;;;8.17;;
55423;SDS011;41294;42.666;23.350;2023-04-20T03:21:30;8.57;;;7.63;;
55423;SDS011;41294;42.666;23.350;2023-04-20T03:23:55;8.57;;;7.77;;
55423;SDS011;41294;42.666;23.350;2023-04-20T03:26:21;8.73;;;7.93;;
55423;SDS011;41294;42.666;23.350;2023-04-20T03:28:48;9.30;;;8.40;;
55423;SDS011;41294;42.666;23.350;2023-04-20T03:31:14;8.83;;;7.87;;
55423;SDS011;41294;42.666;23.350;2023-04-20T03:33:39;9.57;;;8.10;;
55423;SDS011;41294;42.666;23.350;2023-04-20T03:36:05;8.87;;;7.87;;
55423;SDS011;41294;42.666;23.350;2023-04-20T03:38:31;10.40;;;8.60;;
55423;SDS011;41294;42.666;23.350;2023-04-20T03:41:00;9.43;;;8.53;;
55423;SDS011;41294;42.666;23.350;2023-04-20T03:43:29;10.03;;;8.00;;
55423;SDS011;41294;42.666;23.350;2023-04-20T03:45:55;9.83;;;8.10;;
55423;SDS011;41294;42.666;23.350;2023-04-20T03:48:21;9.77;;;8.33;;
55423;SDS011;41294;42.666;23.350;2023-04-20T03:50:46;8.93;;;7.93;;
55423;SDS011;41294;42.666;23.350;2023-04-20T03:53:12;9.47;;;8.50;;
55423;SDS011;41294;42.666;23.350;2023-04-20T03:55:37;9.73;;;8.37;;
55423;SDS011;41294;42.666;23.350;2023-04-20T03:58:03;9.30;;;7.97;;
55423;SDS011;41294;42.666;23.350;2023-04-20T04:00:30;9.57;;;8.03;;
55423;SDS011;41294;42.666;23.350;2023-04-20T04:02:56;8.73;;;7.83;;
55423;SDS011;41294;42.666;23.350;2023-04-20T04:05:23;9.43;;;8.40;;
55423;SDS011;41294;42.666;23.350;2023-04-20T04:07:49;9.10;;;8.10;;
55423;SDS011;41294;42.666;23.350;2023-04-20T04:10:15;10.27;;;7.97;;
55423;SDS011;41294;42.666;23.350;2023-04-20T04:12:43;10.80;;;8.00;;
55423;SDS011;41294;42.666;23.350;2023-04-20T04:15:09;12.43;;;8.57;;
55423;SDS011;41294;42.666;23.350;2023-04-20T04:17:35;12.83;;;8.70;;
55423;SDS011;41294;42.666;23.350;2023-04-20T04:20:01;10.10;;;8.90;;
55423;SDS011;41294;42.666;23.350;2023-04-20T04:22:27;8.73;;;7.83;;
55423;SDS011;41294;42.666;23.350;2023-04-20T04:24:52;9.10;;;8.20;;
55423;SDS011;41294;42.666;23.350;2023-04-20T04:27:18;10.17;;;8.80;;
55423;SDS011;41294;42.666;23.350;2023-04-20T04:29:46;14.23;;;9.07;;
55423;SDS011;41294;42.666;23.350;2023-04-20T04:32:14;10.67;;;9.47;;
55423;SDS011;41294;42.666;23.350;2023-04-20T04:34:40;20.67;;;12.07;;
55423;SDS011;41294;42.666;23.350;2023-04-20T04:37:07;12.17;;;9.57;;
55423;SDS011;41294;42.666;23.350;2023-04-20T04:39:33;10.40;;;9.40;;
55423;SDS011;41294;42.666;23.350;2023-04-20T04:41:58;10.97;;;9.83;;
55423;SDS011;41294;42.666;23.350;2023-04-20T04:44:24;9.97;;;8.90;;
55423;SDS011;41294;42.666;23.350;2023-04-20T04:46:50;11.80;;;10.23;;
55423;SDS011;41294;42.666;23.350;2023-04-20T04:49:15;11.60;;;9.87;;
55423;SDS011;41294;42.666;23.350;2023-04-20T04:51:40;11.57;;;10.47;;
55423;SDS011;41294;42.666;23.350;2023-04-20T04:54:06;11.57;;;10.37;;
55423;SDS011;41294;42.666;23.350;2023-04-20T04:56:33;12.23;;;10.60;;
55423;SDS011;41294;42.666;23.350;2023-04-20T04:58:58;11.53;;;10.10;;
55423;SDS011;41294;42.666;23.350;2023-04-20T05:01:23;16.70;;;10.57;;
55423;SDS011;41294;42.666;23.350;2023-04-20T05:03:49;11.23;;;10.13;;
55423;SDS011;41294;42.666;23.350;2023-04-20T05:06:15;11.63;;;10.43;;
55423;SDS011;41294;42.666;23.350;2023-04-20T05:08:40;12.07;;;10.77;;
55423;SDS011;41294;42.666;23.350;2023-04-20T05:11:06;11.57;;;10.43;;
55423;SDS011;41294;42.666;23.350;2023-04-20T05:13:31;12.20;;;10.73;;
55423;SDS011;41294;42.666;23.350;2023-04-20T05:15:56;15.23;;;13.60;;
55423;SDS011;41294;42.666;23.350;2023-04-20T05:18:22;12.27;;;11.07;;
55423;SDS011;41294;42.666;23.350;2023-04-20T05:20:47;15.30;;;12.07;;
55423;SDS011;41294;42.666;23.350;2023-04-20T05:23:13;12.27;;;10.60;;
55423;SDS011;41294;42.666;23.350;2023-04-20T05:25:38;12.17;;;10.87;;
55423;SDS011;41294;42.666;23.350;2023-04-20T05:28:04;14.17;;;10.73;;
55423;SDS011;41294;42.666;23.350;2023-04-20T05:30:29;12.67;;;10.63;;
55423;SDS011;41294;42.666;23.350;2023-04-20T05:32:56;12.90;;;11.60;;
55423;SDS011;41294;42.666;23.350;2023-04-20T05:35:21;13.67;;;12.37;;
55423;SDS011;41294;42.666;23.350;2023-04-20T05:37:47;13.30;;;11.80;;
55423;SDS011;41294;42.666;23.350;2023-04-20T05:40:12;15.23;;;11.97;;
55423;SDS011;41294;42.666;23.350;2023-04-20T05:42:39;13.73;;;12.07;;
55423;SDS011;41294;42.666;23.350;2023-04-20T05:45:05;14.50;;;11.83;;
55423;SDS011;41294;42.666;23.350;2023-04-20T05:47:31;13.43;;;12.10;;
55423;SDS011;41294;42.666;23.350;2023-04-20T05:49:56;12.70;;;11.40;;
55423;SDS011;41294;42.666;23.350;2023-04-20T05:52:22;14.93;;;12.03;;
55423;SDS011;41294;42.666;23.350;2023-04-20T05:54:47;13.70;;;11.87;;
55423;SDS011;41294;42.666;23.350;2023-04-20T05:57:13;12.57;;;11.37;;
55423;SDS011;41294;42.666;23.350;2023-04-20T05:59:39;13.37;;;12.07;;
55423;SDS011;41294;42.666;23.350;2023-04-20T06:02:04;15.30;;;13.70;;
55423;SDS011;41294;42.666;23.350;2023-04-20T06:04:30;13.30;;;11.90;;
55423;SDS011;41294;42.666;23.350;2023-04-20T06:06:56;18.30;;;16.30;;
55423;SDS011;41294;42.666;23.350;2023-04-20T06:09:21;17.03;;;15.23;;
55423;SDS011;41294;42.666;23.350;2023-04-20T06:11:47;15.40;;;13.80;;
55423;SDS011;41294;42.666;23.350;2023-04-20T06:14:12;18.27;;;13.33;;
55423;SDS011;41294;42.666;23.350;2023-04-20T06:16:39;14.70;;;12.17;;
55423;SDS011;41294;42.666;23.350;2023-04-20T06:19:04;13.80;;;12.43;;
55423;SDS011;41294;42.666;23.350;2023-04-20T06:21:32;14.50;;;13.10;;
55423;SDS011;41294;42.666;23.350;2023-04-20T06:23:58;14.53;;;13.13;;
55423;SDS011;41294;42.666;23.350;2023-04-20T06:26:23;18.00;;;16.03;;
55423;SDS011;41294;42.666;23.350;2023-04-20T06:28:49;197.47;;;48.30;;
55423;SDS011;41294;42.666;23.350;2023-04-20T06:31:16;15.47;;;13.97;;
55423;SDS011;41294;42.666;23.350;2023-04-20T06:33:42;14.53;;;12.50;;
55423;SDS011;41294;42.666;23.350;2023-04-20T06:36:07;14.90;;;13.00;;
55423;SDS011;41294;42.666;23.350;2023-04-20T06:38:33;17.77;;;14.57;;
55423;SDS011;41294;42.666;23.350;2023-04-20T06:40:58;15.70;;;12.90;;
55423;SDS011;41294;42.666;23.350;2023-04-20T06:43:26;15.73;;;13.27;;
55423;SDS011;41294;42.666;23.350;2023-04-20T06:45:52;16.60;;;14.87;;
55423;SDS011;41294;42.666;23.350;2023-04-20T06:48:17;14.17;;;12.67;;
55423;SDS011;41294;42.666;23.350;2023-04-20T06:50:42;15.20;;;13.63;;
55423;SDS011;41294;42.666;23.350;2023-04-20T06:53:08;14.23;;;12.73;;
55423;SDS011;41294;42.666;23.350;2023-04-20T06:55:33;14.67;;;13.10;;
55423;SDS011;41294;42.666;23.350;2023-04-20T06:57:59;18.47;;;14.90;;
55423;SDS011;41294;42.666;23.350;2023-04-20T07:00:24;14.63;;;13.23;;
55423;SDS011;41294;42.666;23.350;2023-04-20T07:02:52;16.77;;;13.07;;
55423;SDS011;41294;42.666;23.350;2023-04-20T07:05:18;14.50;;;12.90;;
55423;SDS011;41294;42.666;23.350;2023-04-20T07:07:43;15.10;;;13.60;;
55423;SDS011;41294;42.666;23.350;2023-04-20T07:10:10;15.90;;;14.30;;
55423;SDS011;41294;42.666;23.350;2023-04-20T07:12:37;19.33;;;15.00;;
55423;SDS011;41294;42.666;23.350;2023-04-20T07:15:03;14.77;;;13.03;;
55423;SDS011;41294;42.666;23.350;2023-04-20T07:17:30;14.60;;;13.20;;
55423;SDS011;41294;42.666;23.350;2023-04-20T07:19:56;14.77;;;13.17;;
55423;SDS011;41294;42.666;23.350;2023-04-20T07:22:23;17.20;;;14.23;;
55423;SDS011;41294;42.666;23.350;2023-04-20T07:24:48;14.60;;;12.83;;
55423;SDS011;41294;42.666;23.350;2023-04-20T07:27:14;16.40;;;13.97;;
55423;SDS011;41294;42.666;23.350;2023-04-20T07:29:40;14.40;;;12.90;;
55423;SDS011;41294;42.666;23.350;2023-04-20T07:32:05;20.10;;;14.20;;
55423;SDS011;41294;42.666;23.350;2023-04-20T07:34:30;15.40;;;13.73;;
55423;SDS011;41294;42.666;23.350;2023-04-20T07:36:56;18.87;;;13.60;;
55423;SDS011;41294;42.666;23.350;2023-04-20T07:39:21;16.57;;;13.77;;
55423;SDS011;41294;42.666;23.350;2023-04-20T07:41:49;15.47;;;13.17;;
55423;SDS011;41294;42.666;23.350;2023-04-20T07:44:14;14.47;;;12.97;;
55423;SDS011;41294;42.666;23.350;2023-04-20T07:46:39;15.30;;;12.90;;
55423;SDS011;41294;42.666;23.350;2023-04-20T07:49:05;15.63;;;13.33;;
55423;SDS011;41294;42.666;23.350;2023-04-20T07:51:31;16.63;;;12.50;;
55423;SDS011;41294;42.666;23.350;2023-04-20T07:53:58;13.10;;;11.80;;
55423;SDS011;41294;42.666;23.350;2023-04-20T07:56:24;17.53;;;14.33;;
55423;SDS011;41294;42.666;23.350;2023-04-20T07:58:49;15.77;;;13.80;;
55423;SDS011;41294;42.666;23.350;2023-04-20T08:01:15;15.00;;;12.83;;
55423;SDS011;41294;42.666;23.350;2023-04-20T08:03:40;13.60;;;11.27;;
55423;SDS011;41294;42.666;23.350;2023-04-20T08:06:06;13.83;;;11.63;;
55423;SDS011;41294;42.666;23.350;2023-04-20T08:08:31;15.80;;;11.60;;
55423;SDS011;41294;42.666;23.350;2023-04-20T08:10:57;11.53;;;10.30;;
55423;SDS011;41294;42.666;23.350;2023-04-20T08:13:22;12.40;;;10.27;;
55423;SDS011;41294;42.666;23.350;2023-04-20T08:15:48;12.00;;;10.70;;
55423;SDS011;41294;42.666;23.350;2023-04-20T08:18:13;12.97;;;11.03;;
55423;SDS011;41294;42.666;23.350;2023-04-20T08:20:39;11.23;;;10.13;;
55423;SDS011;41294;42.666;23.350;2023-04-20T08:23:04;12.83;;;10.30;;
55423;SDS011;41294;42.666;23.350;2023-04-20T08:25:30;12.40;;;11.03;;
55423;SDS011;41294;42.666;23.350;2023-04-20T08:27:56;12.83;;;10.10;;
55423;SDS011;41294;42.666;23.350;2023-04-20T08:30:21;11.30;;;9.53;;
55423;SDS011;41294;42.666;23.350;2023-04-20T08:32:47;11.57;;;10.37;;
55423;SDS011;41294;42.666;23.350;2023-04-20T08:35:12;12.53;;;10.33;;
55423;SDS011;41294;42.666;23.350;2023-04-20T08:37:38;11.23;;;10.13;;
55423;SDS011;41294;42.666;23.350;2023-04-20T08:40:04;12.20;;;10.50;;
55423;SDS011;41294;42.666;23.350;2023-04-20T08:42:30;10.93;;;9.93;;
55423;SDS011;41294;42.666;23.350;2023-04-20T08:44:56;13.20;;;11.27;;
55423;SDS011;41294;42.666;23.350;2023-04-20T08:47:22;11.20;;;10.20;;
55423;SDS011;41294;42.666;23.350;2023-04-20T08:49:49;10.70;;;9.63;;
55423;SDS011;41294;42.666;23.350;2023-04-20T08:52:18;11.37;;;10.27;;
55423;SDS011;41294;42.666;23.350;2023-04-20T08:54:44;10.70;;;9.70;;
55423;SDS011;41294;42.666;23.350;2023-04-20T08:57:09;12.67;;;10.53;;
55423;SDS011;41294;42.666;23.350;2023-04-20T08:59:35;10.87;;;9.87;;
55423;SDS011;41294;42.666;23.350;2023-04-20T09:02:11;11.03;;;9.87;;
55423;SDS011;41294;42.666;23.350;2023-04-20T09:04:38;71.13;;;19.47;;
55423;SDS011;41294;42.666;23.350;2023-04-20T09:07:04;18.00;;;11.17;;
55423;SDS011;41294;42.666;23.350;2023-04-20T09:09:30;13.70;;;10.77;;
55423;SDS011;41294;42.666;23.350;2023-04-20T09:12:03;13.83;;;11.60;;
55423;SDS011;41294;42.666;23.350;2023-04-20T09:14:41;18.70;;;12.03;;
55423;SDS011;41294;42.666;23.350;2023-04-20T09:17:10;11.77;;;10.27;;
55423;SDS011;41294;42.666;23.350;2023-04-20T09:19:38;14.67;;;11.67;;
55423;SDS011;41294;42.666;23.350;2023-04-20T09:22:04;12.97;;;11.63;;
55423;SDS011;41294;42.666;23.350;2023-04-20T09:24:34;16.20;;;13.77;;
55423;SDS011;41294;42.666;23.350;2023-04-20T09:27:12;10.97;;;9.83;;
55423;SDS011;41294;42.666;23.350;2023-04-20T09:29:41;19.27;;;11.57;;
55423;SDS011;41294;42.666;23.350;2023-04-20T09:32:07;16.37;;;10.50;;
55423;SDS011;41294;42.666;23.350;2023-04-20T09:34:42;12.87;;;10.60;;
55423;SDS011;41294;42.666;23.350;2023-04-20T09:37:13;9.97;;;9.07;;
55423;SDS011;41294;42.666;23.350;2023-04-20T09:39:42;11.17;;;10.07;;
55423;SDS011;41294;42.666;23.350;2023-04-20T09:42:10;11.60;;;10.43;;
55423;SDS011;41294;42.666;23.350;2023-04-20T09:44:37;10.53;;;9.50;;
55423;SDS011;41294;42.666;23.350;2023-04-20T09:47:03;10.63;;;9.63;;
55423;SDS011;41294;42.666;23.350;2023-04-20T09:49:30;13.40;;;10.48;;
55423;SDS011;41294;42.666;23.350;2023-04-20T09:51:56;9.87;;;8.90;;
55423;SDS011;41294;42.666;23.350;2023-04-20T09:54:25;10.43;;;9.13;;
55423;SDS011;41294;42.666;23.350;2023-04-20T09:56:52;11.10;;;8.70;;
55423;SDS011;41294;42.666;23.350;2023-04-20T09:59:17;10.10;;;9.10;;
55423;SDS011;41294;42.666;23.350;2023-04-20T10:01:43;9.48;;;8.48;;
55423;SDS011;41294;42.666;23.350;2023-04-20T10:04:09;10.73;;;9.20;;
55423;SDS011;41294;42.666;23.350;2023-04-20T10:06:36;12.50;;;9.45;;
55423;SDS011;41294;42.666;23.350;2023-04-20T10:09:03;11.30;;;9.60;;
55423;SDS011;41294;42.666;23.350;2023-04-20T10:14:22;10.05;;;9.05;;
55423;SDS011;41294;42.666;23.350;2023-04-20T10:16:58;9.90;;;9.00;;
55423;SDS011;41294;42.666;23.350;2023-04-20T10:19:37;12.00;;;9.80;;
55423;SDS011;41294;42.666;23.350;2023-04-20T10:22:10;12.15;;;9.77;;
55423;SDS011;41294;42.666;23.350;2023-04-20T10:24:38;10.65;;;9.02;;
55423;SDS011;41294;42.666;23.350;2023-04-20T10:27:14;10.20;;;9.15;;
55423;SDS011;41294;42.666;23.350;2023-04-20T10:29:41;9.40;;;8.50;;
55423;SDS011;41294;42.666;23.350;2023-04-20T10:32:06;10.60;;;9.60;;
55423;SDS011;41294;42.666;23.350;2023-04-20T10:34:32;10.27;;;9.00;;
55423;SDS011;41294;42.666;23.350;2023-04-20T10:37:06;10.05;;;9.00;;
55423;SDS011;41294;42.666;23.350;2023-04-20T10:39:35;9.73;;;8.27;;
55423;SDS011;41294;42.666;23.350;2023-04-20T10:42:07;9.45;;;7.95;;
55423;SDS011;41294;42.666;23.350;2023-04-20T10:44:33;9.27;;;8.35;;
55423;SDS011;41294;42.666;23.350;2023-04-20T10:46:59;10.52;;;8.88;;
55423;SDS011;41294;42.666;23.350;2023-04-20T10:49:28;10.73;;;9.10;;
55423;SDS011;41294;42.666;23.350;2023-04-20T10:51:55;7.95;;;7.30;;
55423;SDS011;41294;42.666;23.350;2023-04-20T10:54:21;9.90;;;8.40;;
55423;SDS011;41294;42.666;23.350;2023-04-20T10:56:47;8.15;;;7.35;;
55423;SDS011;41294;42.666;23.350;2023-04-20T10:59:17;9.95;;;7.60;;
55423;SDS011;41294;42.666;23.350;2023-04-20T11:01:49;8.70;;;7.15;;
55423;SDS011;41294;42.666;23.350;2023-04-20T11:04:16;8.55;;;7.57;;
55423;SDS011;41294;42.666;23.350;2023-04-20T11:06:43;8.52;;;7.82;;
55423;SDS011;41294;42.666;23.350;2023-04-20T11:12:00;7.55;;;6.82;;
55423;SDS011;41294;42.666;23.350;2023-04-20T11:14:30;8.57;;;7.03;;
55423;SDS011;41294;42.666;23.350;2023-04-20T11:16:56;25.08;;;7.78;;
55423;SDS011;41294;42.666;23.350;2023-04-20T11:19:31;7.53;;;6.82;;
55423;SDS011;41294;42.666;23.350;2023-04-20T11:21:58;30.23;;;9.60;;
55423;SDS011;41294;42.666;23.350;2023-04-20T11:24:25;12.00;;;7.55;;
55423;SDS011;41294;42.666;23.350;2023-04-20T11:26:52;7.93;;;7.15;;
55423;SDS011;41294;42.666;23.350;2023-04-20T11:31:53;8.30;;;7.35;;
55423;SDS011;41294;42.666;23.350;2023-04-20T11:34:18;87.68;;;14.40;;
55423;SDS011;41294;42.666;23.350;2023-04-20T11:36:44;11.18;;;7.47;;
55423;SDS011;41294;42.666;23.350;2023-04-20T11:39:10;10.30;;;8.07;;
55423;SDS011;41294;42.666;23.350;2023-04-20T11:41:39;7.78;;;7.03;;
55423;SDS011;41294;42.666;23.350;2023-04-20T11:44:06;7.32;;;6.63;;
55423;SDS011;41294;42.666;23.350;2023-04-20T11:46:33;7.32;;;6.50;;
55423;SDS011;41294;42.666;23.350;2023-04-20T11:49:01;8.10;;;6.60;;
55423;SDS011;41294;42.666;23.350;2023-04-20T11:51:29;8.13;;;6.65;;
55423;SDS011;41294;42.666;23.350;2023-04-20T11:53:55;7.40;;;6.63;;
55423;SDS011;41294;42.666;23.350;2023-04-20T11:56:21;7.05;;;6.47;;
55423;SDS011;41294;42.666;23.350;2023-04-20T11:58:47;6.57;;;5.97;;
55423;SDS011;41294;42.666;23.350;2023-04-20T12:01:12;6.60;;;6.00;;
55423;SDS011;41294;42.666;23.350;2023-04-20T12:03:40;7.30;;;6.60;;
55423;SDS011;41294;42.666;23.350;2023-04-20T12:06:06;7.28;;;6.30;;
55423;SDS011;41294;42.666;23.350;2023-04-20T12:08:31;9.52;;;6.80;;
55423;SDS011;41294;42.666;23.350;2023-04-20T12:10:57;7.25;;;6.22;;
55423;SDS011;41294;42.666;23.350;2023-04-20T12:13:22;7.15;;;6.45;;
55423;SDS011;41294;42.666;23.350;2023-04-20T12:15:47;7.93;;;7.07;;
55423;SDS011;41294;42.666;23.350;2023-04-20T12:18:13;7.22;;;6.57;;
55423;SDS011;41294;42.666;23.350;2023-04-20T12:20:38;8.20;;;6.78;;
55423;SDS011;41294;42.666;23.350;2023-04-20T12:23:04;7.78;;;6.55;;
55423;SDS011;41294;42.666;23.350;2023-04-20T12:25:29;6.82;;;6.22;;
55423;SDS011;41294;42.666;23.350;2023-04-20T12:27:54;6.93;;;6.28;;
55423;SDS011;41294;42.666;23.350;2023-04-20T12:30:20;7.55;;;6.88;;
55423;SDS011;41294;42.666;23.350;2023-04-20T12:32:45;9.30;;;8.43;;
55423;SDS011;41294;42.666;23.350;2023-04-20T12:35:11;9.82;;;7.57;;
55423;SDS011;41294;42.666;23.350;2023-04-20T12:37:37;7.90;;;7.20;;
55423;SDS011;41294;42.666;23.350;2023-04-20T12:40:02;7.15;;;6.55;;
55423;SDS011;41294;42.666;23.350;2023-04-20T12:42:30;8.82;;;7.90;;
55423;SDS011;41294;42.666;23.350;2023-04-20T12:44:55;8.73;;;5.93;;
55423;SDS011;41294;42.666;23.350;2023-04-20T12:47:21;12.60;;;6.50;;
55423;SDS011;41294;42.666;23.350;2023-04-20T12:49:46;8.32;;;6.07;;
55423;SDS011;41294;42.666;23.350;2023-04-20T12:52:12;8.38;;;7.55;;
55423;SDS011;41294;42.666;23.350;2023-04-20T12:54:37;9.55;;;7.00;;
55423;SDS011;41294;42.666;23.350;2023-04-20T12:57:03;7.87;;;7.17;;
55423;SDS011;41294;42.666;23.350;2023-04-20T12:59:28;7.80;;;6.85;;
55423;SDS011;41294;42.666;23.350;2023-04-20T13:01:54;7.97;;;6.95;;
55423;SDS011;41294;42.666;23.350;2023-04-20T13:04:19;7.32;;;6.63;;
55423;SDS011;41294;42.666;23.350;2023-04-20T13:06:45;7.93;;;6.30;;
55423;SDS011;41294;42.666;23.350;2023-04-20T13:09:10;5.30;;;4.77;;
55423;SDS011;41294;42.666;23.350;2023-04-20T13:11:36;6.85;;;5.20;;
55423;SDS011;41294;42.666;23.350;2023-04-20T13:14:01;5.63;;;4.10;;
55423;SDS011;41294;42.666;23.350;2023-04-20T13:16:26;5.37;;;4.60;;
55423;SDS011;41294;42.666;23.350;2023-04-20T13:18:53;9.20;;;6.23;;
55423;SDS011;41294;42.666;23.350;2023-04-20T13:21:19;5.90;;;5.00;;
55423;SDS011;41294;42.666;23.350;2023-04-20T13:23:44;5.63;;;5.10;;
55423;SDS011;41294;42.666;23.350;2023-04-20T13:26:10;6.80;;;5.20;;
55423;SDS011;41294;42.666;23.350;2023-04-20T13:28:35;8.17;;;5.50;;
55423;SDS011;41294;42.666;23.350;2023-04-20T13:31:01;6.10;;;5.50;;
55423;SDS011;41294;42.666;23.350;2023-04-20T13:33:27;7.03;;;6.33;;
55423;SDS011;41294;42.666;23.350;2023-04-20T13:35:52;6.60;;;5.97;;
55423;SDS011;41294;42.666;23.350;2023-04-20T13:38:18;8.93;;;7.00;;
55423;SDS011;41294;42.666;23.350;2023-04-20T13:40:44;6.70;;;6.10;;
55423;SDS011;41294;42.666;23.350;2023-04-20T13:43:11;6.63;;;6.03;;
55423;SDS011;41294;42.666;23.350;2023-04-20T13:45:36;8.10;;;6.70;;
55423;SDS011;41294;42.666;23.350;2023-04-20T13:48:02;8.10;;;7.30;;
55423;SDS011;41294;42.666;23.350;2023-04-20T13:50:27;9.83;;;6.87;;
55423;SDS011;41294;42.666;23.350;2023-04-20T13:52:52;8.47;;;7.50;;
55423;SDS011;41294;42.666;23.350;2023-04-20T13:55:18;7.50;;;6.80;;
55423;SDS011;41294;42.666;23.350;2023-04-20T13:57:44;6.93;;;6.33;;
55423;SDS011;41294;42.666;23.350;2023-04-20T14:00:10;6.93;;;6.10;;
55423;SDS011;41294;42.666;23.350;2023-04-20T14:02:36;7.67;;;5.97;;
55423;SDS011;41294;42.666;23.350;2023-04-20T14:05:02;7.70;;;6.30;;
55423;SDS011;41294;42.666;23.350;2023-04-20T14:07:29;8.00;;;6.40;;
55423;SDS011;41294;42.666;23.350;2023-04-20T14:09:55;9.27;;;6.13;;
55423;SDS011;41294;42.666;23.350;2023-04-20T14:12:23;7.07;;;6.37;;
55423;SDS011;41294;42.666;23.350;2023-04-20T14:14:51;7.23;;;6.47;;
55423;SDS011;41294;42.666;23.350;2023-04-20T14:17:17;7.03;;;6.00;;
55423;SDS011;41294;42.666;23.350;2023-04-20T14:19:42;7.10;;;6.40;;
55423;SDS011;41294;42.666;23.350;2023-04-20T14:22:08;6.70;;;6.00;;
55423;SDS011;41294;42.666;23.350;2023-04-20T14:24:33;8.10;;;6.60;;
55423;SDS011;41294;42.666;23.350;2023-04-20T14:26:58;7.33;;;6.53;;